sensor_id;sensor_type;location;lat;lon;timestamp;P1;durP1;ratioP1;P2;durP2;ratioP2
12165;SDS011;6146;48.128;11.476;2024-03-17T00:01:54;3.53;;;2.87;;
12165;SDS011;6146;48.128;11.476;2024-03-17T00:04:20;4.13;;;2.90;;
12165;SDS011;6146;48.128;11.476;2024-03-17T00:06:46;3.17;;;2.80;;
12165;SDS011;6146;48.128;11.476;2024-03-17T00:09:12;3.13;;;2.83;;
12165;SDS011;6146;48.128;11.476;2024-03-17T00:11:38;3.33;;;3.00;;
12165;SDS011;6146;48.128;11.476;2024-03-17T00:14:04;4.40;;;2.77;;
12165;SDS011;6146;48.128;11.476;2024-03-17T00:16:30;3.40;;;2.67;;
12165;SDS011;6146;48.128;11.476;2024-03-17T00:18:56;3.23;;;2.93;;
12165;SDS011;6146;48.128;11.476;2024-03-17T00:21:21;3.10;;;2.70;;
12165;SDS011;6146;48.128;11.476;2024-03-17T00:23:48;3.20;;;2.87;;
12165;SDS011;6146;48.128;11.476;2024-03-17T00:26:17;3.10;;;2.80;;
12165;SDS011;6146;48.128;11.476;2024-03-17T00:28:44;3.43;;;2.40;;
12165;SDS011;6146;48.128;11.476;2024-03-17T00:31:13;4.47;;;3.13;;
12165;SDS011;6146;48.128;11.476;2024-03-17T00:33:39;3.17;;;2.87;;
12165;SDS011;6146;48.128;11.476;2024-03-17T00:36:05;3.60;;;3.10;;
12165;SDS011;6146;48.128;11.476;2024-03-17T00:38:31;3.07;;;2.77;;
12165;SDS011;6146;48.128;11.476;2024-03-17T00:40:57;4.17;;;3.30;;
12165;SDS011;6146;48.128;11.476;2024-03-17T00:43:22;2.90;;;2.60;;
12165;SDS011;6146;48.128;11.476;2024-03-17T00:45:51;3.83;;;2.67;;
12165;SDS011;6146;48.128;11.476;2024-03-17T00:48:18;3.30;;;2.83;;
12165;SDS011;6146;48.128;11.476;2024-03-17T00:50:43;3.37;;;2.57;;
12165;SDS011;6146;48.128;11.476;2024-03-17T00:53:12;2.50;;;2.30;;
12165;SDS011;6146;48.128;11.476;2024-03-17T00:55:39;3.63;;;3.17;;
12165;SDS011;6146;48.128;11.476;2024-03-17T00:58:04;4.97;;;2.97;;
12165;SDS011;6146;48.128;11.476;2024-03-17T01:00:31;3.77;;;2.90;;
12165;SDS011;6146;48.128;11.476;2024-03-17T01:02:58;3.73;;;3.00;;
12165;SDS011;6146;48.128;11.476;2024-03-17T01:05:24;3.40;;;3.10;;
12165;SDS011;6146;48.128;11.476;2024-03-17T01:07:49;5.03;;;3.70;;
12165;SDS011;6146;48.128;11.476;2024-03-17T01:10:15;5.20;;;4.50;;
12165;SDS011;6146;48.128;11.476;2024-03-17T01:12:40;4.73;;;3.97;;
12165;SDS011;6146;48.128;11.476;2024-03-17T01:15:06;5.50;;;3.80;;
12165;SDS011;6146;48.128;11.476;2024-03-17T01:17:33;5.83;;;4.03;;
12165;SDS011;6146;48.128;11.476;2024-03-17T01:19:59;3.53;;;3.23;;
12165;SDS011;6146;48.128;11.476;2024-03-17T01:22:24;6.03;;;3.73;;
12165;SDS011;6146;48.128;11.476;2024-03-17T01:24:50;5.23;;;4.53;;
12165;SDS011;6146;48.128;11.476;2024-03-17T01:27:15;4.50;;;3.77;;
12165;SDS011;6146;48.128;11.476;2024-03-17T01:29:41;4.07;;;3.60;;
12165;SDS011;6146;48.128;11.476;2024-03-17T01:32:08;4.77;;;3.70;;
12165;SDS011;6146;48.128;11.476;2024-03-17T01:34:34;4.87;;;4.03;;
12165;SDS011;6146;48.128;11.476;2024-03-17T01:37:00;4.10;;;3.60;;
12165;SDS011;6146;48.128;11.476;2024-03-17T01:39:25;3.77;;;3.40;;
12165;SDS011;6146;48.128;11.476;2024-03-17T01:41:51;4.60;;;3.97;;
12165;SDS011;6146;48.128;11.476;2024-03-17T01:44:24;4.30;;;3.63;;
12165;SDS011;6146;48.128;11.476;2024-03-17T01:46:52;5.93;;;5.00;;
12165;SDS011;6146;48.128;11.476;2024-03-17T01:49:18;4.73;;;3.50;;
12165;SDS011;6146;48.128;11.476;2024-03-17T01:51:46;5.37;;;4.10;;
12165;SDS011;6146;48.128;11.476;2024-03-17T01:54:13;4.63;;;4.13;;
12165;SDS011;6146;48.128;11.476;2024-03-17T01:56:39;4.40;;;4.00;;
12165;SDS011;6146;48.128;11.476;2024-03-17T01:59:05;3.80;;;3.50;;
12165;SDS011;6146;48.128;11.476;2024-03-17T02:01:32;5.70;;;4.27;;
12165;SDS011;6146;48.128;11.476;2024-03-17T02:03:58;4.60;;;4.20;;
12165;SDS011;6146;48.128;11.476;2024-03-17T02:06:24;4.80;;;4.30;;
12165;SDS011;6146;48.128;11.476;2024-03-17T02:08:53;5.50;;;3.90;;
12165;SDS011;6146;48.128;11.476;2024-03-17T02:11:26;4.17;;;3.77;;
12165;SDS011;6146;48.128;11.476;2024-03-17T02:13:56;4.97;;;3.93;;
12165;SDS011;6146;48.128;11.476;2024-03-17T02:16:22;4.70;;;3.70;;
12165;SDS011;6146;48.128;11.476;2024-03-17T02:18:48;4.47;;;4.07;;
12165;SDS011;6146;48.128;11.476;2024-03-17T02:21:14;4.30;;;3.90;;
12165;SDS011;6146;48.128;11.476;2024-03-17T02:23:43;3.77;;;3.40;;
12165;SDS011;6146;48.128;11.476;2024-03-17T02:26:09;4.83;;;3.33;;
12165;SDS011;6146;48.128;11.476;2024-03-17T02:28:42;3.97;;;3.60;;
12165;SDS011;6146;48.128;11.476;2024-03-17T02:31:09;4.10;;;3.57;;
12165;SDS011;6146;48.128;11.476;2024-03-17T02:33:37;5.90;;;4.13;;
12165;SDS011;6146;48.128;11.476;2024-03-17T02:36:03;4.83;;;3.80;;
12165;SDS011;6146;48.128;11.476;2024-03-17T02:38:32;4.57;;;3.47;;
12165;SDS011;6146;48.128;11.476;2024-03-17T02:41:17;3.77;;;3.47;;
12165;SDS011;6146;48.128;11.476;2024-03-17T02:43:43;4.57;;;3.80;;
12165;SDS011;6146;48.128;11.476;2024-03-17T02:46:16;5.13;;;4.10;;
12165;SDS011;6146;48.128;11.476;2024-03-17T02:48:47;4.57;;;3.57;;
12165;SDS011;6146;48.128;11.476;2024-03-17T02:51:15;4.43;;;4.03;;
12165;SDS011;6146;48.128;11.476;2024-03-17T02:53:42;3.73;;;3.20;;
12165;SDS011;6146;48.128;11.476;2024-03-17T02:56:10;3.60;;;3.30;;
12165;SDS011;6146;48.128;11.476;2024-03-17T02:58:36;3.67;;;3.37;;
12165;SDS011;6146;48.128;11.476;2024-03-17T03:01:06;4.10;;;3.47;;
12165;SDS011;6146;48.128;11.476;2024-03-17T03:03:32;3.80;;;3.40;;
12165;SDS011;6146;48.128;11.476;2024-03-17T03:05:58;3.97;;;3.37;;
12165;SDS011;6146;48.128;11.476;2024-03-17T03:08:26;4.83;;;4.03;;
12165;SDS011;6146;48.128;11.476;2024-03-17T03:10:51;3.67;;;3.33;;
12165;SDS011;6146;48.128;11.476;2024-03-17T03:13:17;4.43;;;3.93;;
12165;SDS011;6146;48.128;11.476;2024-03-17T03:15:45;5.80;;;3.90;;
12165;SDS011;6146;48.128;11.476;2024-03-17T03:18:12;3.87;;;3.47;;
12165;SDS011;6146;48.128;11.476;2024-03-17T03:20:38;5.17;;;3.87;;
12165;SDS011;6146;48.128;11.476;2024-03-17T03:23:04;4.07;;;3.50;;
12165;SDS011;6146;48.128;11.476;2024-03-17T03:25:29;4.67;;;3.80;;
12165;SDS011;6146;48.128;11.476;2024-03-17T03:27:55;4.93;;;3.93;;
12165;SDS011;6146;48.128;11.476;2024-03-17T03:30:22;4.30;;;3.87;;
12165;SDS011;6146;48.128;11.476;2024-03-17T03:32:48;4.07;;;3.67;;
12165;SDS011;6146;48.128;11.476;2024-03-17T03:35:14;4.90;;;3.80;;
12165;SDS011;6146;48.128;11.476;2024-03-17T03:37:40;4.23;;;3.83;;
12165;SDS011;6146;48.128;11.476;2024-03-17T03:40:06;4.93;;;4.00;;
12165;SDS011;6146;48.128;11.476;2024-03-17T03:42:42;4.20;;;3.80;;
12165;SDS011;6146;48.128;11.476;2024-03-17T03:45:09;3.67;;;3.33;;
12165;SDS011;6146;48.128;11.476;2024-03-17T03:47:41;3.80;;;3.50;;
12165;SDS011;6146;48.128;11.476;2024-03-17T03:50:10;3.90;;;3.53;;
12165;SDS011;6146;48.128;11.476;2024-03-17T03:52:36;4.23;;;3.87;;
12165;SDS011;6146;48.128;11.476;2024-03-17T03:55:03;4.07;;;3.67;;
12165;SDS011;6146;48.128;11.476;2024-03-17T03:57:29;4.97;;;3.90;;
12165;SDS011;6146;48.128;11.476;2024-03-17T03:59:57;4.20;;;3.80;;
12165;SDS011;6146;48.128;11.476;2024-03-17T04:02:22;3.60;;;3.30;;
12165;SDS011;6146;48.128;11.476;2024-03-17T04:04:50;4.53;;;3.73;;
12165;SDS011;6146;48.128;11.476;2024-03-17T04:07:15;4.40;;;3.77;;
12165;SDS011;6146;48.128;11.476;2024-03-17T04:09:41;4.63;;;3.80;;
12165;SDS011;6146;48.128;11.476;2024-03-17T04:12:07;4.20;;;3.80;;
12165;SDS011;6146;48.128;11.476;2024-03-17T04:14:33;4.33;;;3.93;;
12165;SDS011;6146;48.128;11.476;2024-03-17T04:16:58;4.23;;;3.80;;
12165;SDS011;6146;48.128;11.476;2024-03-17T04:19:24;4.20;;;3.80;;
12165;SDS011;6146;48.128;11.476;2024-03-17T04:21:50;5.13;;;4.23;;
12165;SDS011;6146;48.128;11.476;2024-03-17T04:24:16;6.73;;;4.40;;
12165;SDS011;6146;48.128;11.476;2024-03-17T04:26:42;4.50;;;4.10;;
12165;SDS011;6146;48.128;11.476;2024-03-17T04:29:08;4.33;;;3.87;;
12165;SDS011;6146;48.128;11.476;2024-03-17T04:31:34;4.77;;;4.20;;
12165;SDS011;6146;48.128;11.476;2024-03-17T04:33:59;5.30;;;4.13;;
12165;SDS011;6146;48.128;11.476;2024-03-17T04:36:25;4.40;;;4.00;;
12165;SDS011;6146;48.128;11.476;2024-03-17T04:38:51;4.47;;;4.07;;
12165;SDS011;6146;48.128;11.476;2024-03-17T04:41:16;4.33;;;3.77;;
12165;SDS011;6146;48.128;11.476;2024-03-17T04:43:43;4.30;;;3.90;;
12165;SDS011;6146;48.128;11.476;2024-03-17T04:46:09;4.60;;;3.60;;
12165;SDS011;6146;48.128;11.476;2024-03-17T04:48:37;4.13;;;3.73;;
12165;SDS011;6146;48.128;11.476;2024-03-17T04:51:03;4.30;;;3.77;;
12165;SDS011;6146;48.128;11.476;2024-03-17T04:53:29;4.00;;;3.60;;
12165;SDS011;6146;48.128;11.476;2024-03-17T04:55:58;4.20;;;3.67;;
12165;SDS011;6146;48.128;11.476;2024-03-17T04:58:25;4.30;;;3.67;;
12165;SDS011;6146;48.128;11.476;2024-03-17T05:00:50;4.60;;;3.80;;
12165;SDS011;6146;48.128;11.476;2024-03-17T05:03:16;3.90;;;3.50;;
12165;SDS011;6146;48.128;11.476;2024-03-17T05:05:41;4.80;;;4.30;;
12165;SDS011;6146;48.128;11.476;2024-03-17T05:08:07;4.17;;;3.70;;
12165;SDS011;6146;48.128;11.476;2024-03-17T05:10:32;4.93;;;4.43;;
12165;SDS011;6146;48.128;11.476;2024-03-17T05:12:58;4.83;;;4.13;;
12165;SDS011;6146;48.128;11.476;2024-03-17T05:15:23;4.07;;;3.70;;
12165;SDS011;6146;48.128;11.476;2024-03-17T05:17:49;5.00;;;3.83;;
12165;SDS011;6146;48.128;11.476;2024-03-17T05:20:15;4.30;;;3.90;;
12165;SDS011;6146;48.128;11.476;2024-03-17T05:22:41;4.37;;;3.37;;
12165;SDS011;6146;48.128;11.476;2024-03-17T05:25:07;5.37;;;4.10;;
12165;SDS011;6146;48.128;11.476;2024-03-17T05:27:33;6.73;;;4.07;;
12165;SDS011;6146;48.128;11.476;2024-03-17T05:29:58;4.17;;;3.80;;
12165;SDS011;6146;48.128;11.476;2024-03-17T05:32:24;4.93;;;4.43;;
12165;SDS011;6146;48.128;11.476;2024-03-17T05:34:51;4.40;;;4.00;;
12165;SDS011;6146;48.128;11.476;2024-03-17T05:37:17;6.03;;;4.40;;
12165;SDS011;6146;48.128;11.476;2024-03-17T05:39:42;4.37;;;3.97;;
12165;SDS011;6146;48.128;11.476;2024-03-17T05:42:08;5.43;;;4.73;;
12165;SDS011;6146;48.128;11.476;2024-03-17T05:44:33;4.10;;;3.70;;
12165;SDS011;6146;48.128;11.476;2024-03-17T05:47:14;4.77;;;4.07;;
12165;SDS011;6146;48.128;11.476;2024-03-17T05:49:41;4.93;;;4.43;;
12165;SDS011;6146;48.128;11.476;2024-03-17T05:52:07;4.93;;;4.03;;
12165;SDS011;6146;48.128;11.476;2024-03-17T05:54:33;4.57;;;4.17;;
12165;SDS011;6146;48.128;11.476;2024-03-17T05:56:59;5.00;;;4.50;;
12165;SDS011;6146;48.128;11.476;2024-03-17T05:59:24;4.27;;;3.87;;
12165;SDS011;6146;48.128;11.476;2024-03-17T06:01:50;5.27;;;4.40;;
12165;SDS011;6146;48.128;11.476;2024-03-17T06:04:15;4.97;;;4.37;;
12165;SDS011;6146;48.128;11.476;2024-03-17T06:06:42;5.17;;;4.30;;
12165;SDS011;6146;48.128;11.476;2024-03-17T06:09:07;4.50;;;4.00;;
12165;SDS011;6146;48.128;11.476;2024-03-17T06:11:35;4.83;;;4.43;;
12165;SDS011;6146;48.128;11.476;2024-03-17T06:14:01;4.80;;;4.30;;
12165;SDS011;6146;48.128;11.476;2024-03-17T06:16:29;5.10;;;4.60;;
12165;SDS011;6146;48.128;11.476;2024-03-17T06:18:56;4.90;;;4.30;;
12165;SDS011;6146;48.128;11.476;2024-03-17T06:21:21;5.50;;;4.67;;
12165;SDS011;6146;48.128;11.476;2024-03-17T06:23:47;5.10;;;4.23;;
12165;SDS011;6146;48.128;11.476;2024-03-17T06:26:13;5.53;;;4.57;;
12165;SDS011;6146;48.128;11.476;2024-03-17T06:28:39;5.83;;;4.40;;
12165;SDS011;6146;48.128;11.476;2024-03-17T06:31:04;4.97;;;4.47;;
12165;SDS011;6146;48.128;11.476;2024-03-17T06:33:32;5.10;;;4.60;;
12165;SDS011;6146;48.128;11.476;2024-03-17T06:35:58;5.87;;;4.83;;
12165;SDS011;6146;48.128;11.476;2024-03-17T06:38:29;6.23;;;4.70;;
12165;SDS011;6146;48.128;11.476;2024-03-17T06:40:55;5.17;;;4.20;;
12165;SDS011;6146;48.128;11.476;2024-03-17T06:43:20;4.40;;;4.00;;
12165;SDS011;6146;48.128;11.476;2024-03-17T06:45:59;4.77;;;4.27;;
12165;SDS011;6146;48.128;11.476;2024-03-17T06:48:26;4.40;;;4.00;;
12165;SDS011;6146;48.128;11.476;2024-03-17T06:50:52;4.33;;;3.93;;
12165;SDS011;6146;48.128;11.476;2024-03-17T06:53:19;5.17;;;4.17;;
12165;SDS011;6146;48.128;11.476;2024-03-17T06:56:07;4.07;;;3.67;;
12165;SDS011;6146;48.128;11.476;2024-03-17T06:58:33;4.67;;;3.97;;
12165;SDS011;6146;48.128;11.476;2024-03-17T07:00:59;3.70;;;3.40;;
12165;SDS011;6146;48.128;11.476;2024-03-17T07:03:26;4.20;;;3.80;;
12165;SDS011;6146;48.128;11.476;2024-03-17T07:05:53;4.33;;;3.53;;
12165;SDS011;6146;48.128;11.476;2024-03-17T07:08:23;4.30;;;3.90;;
12165;SDS011;6146;48.128;11.476;2024-03-17T07:10:59;4.53;;;3.20;;
12165;SDS011;6146;48.128;11.476;2024-03-17T07:13:28;5.00;;;3.80;;
12165;SDS011;6146;48.128;11.476;2024-03-17T07:15:55;4.50;;;3.30;;
12165;SDS011;6146;48.128;11.476;2024-03-17T07:18:20;4.07;;;3.67;;
12165;SDS011;6146;48.128;11.476;2024-03-17T07:20:46;4.10;;;3.37;;
12165;SDS011;6146;48.128;11.476;2024-03-17T07:23:13;4.13;;;3.50;;
12165;SDS011;6146;48.128;11.476;2024-03-17T07:25:40;4.60;;;3.40;;
12165;SDS011;6146;48.128;11.476;2024-03-17T07:28:06;5.17;;;3.40;;
12165;SDS011;6146;48.128;11.476;2024-03-17T07:30:31;3.50;;;3.20;;
12165;SDS011;6146;48.128;11.476;2024-03-17T07:32:57;4.43;;;3.23;;
12165;SDS011;6146;48.128;11.476;2024-03-17T07:35:23;3.43;;;2.90;;
12165;SDS011;6146;48.128;11.476;2024-03-17T07:37:48;3.33;;;2.87;;
12165;SDS011;6146;48.128;11.476;2024-03-17T07:40:14;3.33;;;3.03;;
12165;SDS011;6146;48.128;11.476;2024-03-17T07:42:40;3.87;;;3.00;;
12165;SDS011;6146;48.128;11.476;2024-03-17T07:45:07;3.37;;;3.07;;
12165;SDS011;6146;48.128;11.476;2024-03-17T07:47:33;3.67;;;3.30;;
12165;SDS011;6146;48.128;11.476;2024-03-17T07:50:03;4.77;;;2.87;;
12165;SDS011;6146;48.128;11.476;2024-03-17T07:52:30;3.20;;;2.90;;
12165;SDS011;6146;48.128;11.476;2024-03-17T07:54:56;3.37;;;2.97;;
12165;SDS011;6146;48.128;11.476;2024-03-17T07:57:22;4.90;;;3.30;;
12165;SDS011;6146;48.128;11.476;2024-03-17T07:59:51;3.20;;;2.90;;
12165;SDS011;6146;48.128;11.476;2024-03-17T08:02:16;3.10;;;2.80;;
12165;SDS011;6146;48.128;11.476;2024-03-17T08:04:42;3.37;;;3.07;;
12165;SDS011;6146;48.128;11.476;2024-03-17T08:07:09;3.23;;;2.90;;
12165;SDS011;6146;48.128;11.476;2024-03-17T08:09:35;3.20;;;2.90;;
12165;SDS011;6146;48.128;11.476;2024-03-17T08:12:01;3.10;;;2.80;;
12165;SDS011;6146;48.128;11.476;2024-03-17T08:14:29;2.90;;;2.70;;
12165;SDS011;6146;48.128;11.476;2024-03-17T08:16:57;2.93;;;2.70;;
12165;SDS011;6146;48.128;11.476;2024-03-17T08:19:23;3.27;;;2.73;;
12165;SDS011;6146;48.128;11.476;2024-03-17T08:21:48;3.07;;;2.77;;
12165;SDS011;6146;48.128;11.476;2024-03-17T08:24:14;2.70;;;2.50;;
12165;SDS011;6146;48.128;11.476;2024-03-17T08:26:39;3.20;;;2.67;;
12165;SDS011;6146;48.128;11.476;2024-03-17T08:29:05;2.83;;;2.63;;
12165;SDS011;6146;48.128;11.476;2024-03-17T08:31:31;2.90;;;2.43;;
12165;SDS011;6146;48.128;11.476;2024-03-17T08:33:57;2.63;;;2.43;;
12165;SDS011;6146;48.128;11.476;2024-03-17T08:36:22;2.57;;;2.37;;
12165;SDS011;6146;48.128;11.476;2024-03-17T08:38:49;3.83;;;2.40;;
12165;SDS011;6146;48.128;11.476;2024-03-17T08:41:15;3.63;;;2.60;;
12165;SDS011;6146;48.128;11.476;2024-03-17T08:43:41;2.40;;;2.20;;
12165;SDS011;6146;48.128;11.476;2024-03-17T08:46:08;2.63;;;2.20;;
12165;SDS011;6146;48.128;11.476;2024-03-17T08:48:35;2.40;;;2.13;;
12165;SDS011;6146;48.128;11.476;2024-03-17T08:51:03;2.40;;;2.20;;
12165;SDS011;6146;48.128;11.476;2024-03-17T08:53:30;4.17;;;2.30;;
12165;SDS011;6146;48.128;11.476;2024-03-17T08:55:56;2.47;;;2.27;;
12165;SDS011;6146;48.128;11.476;2024-03-17T08:58:22;2.80;;;2.30;;
12165;SDS011;6146;48.128;11.476;2024-03-17T09:00:48;2.77;;;2.50;;
12165;SDS011;6146;48.128;11.476;2024-03-17T09:03:14;2.47;;;2.20;;
12165;SDS011;6146;48.128;11.476;2024-03-17T09:05:40;2.30;;;1.97;;
12165;SDS011;6146;48.128;11.476;2024-03-17T09:08:13;2.13;;;1.90;;
12165;SDS011;6146;48.128;11.476;2024-03-17T09:10:45;1.67;;;1.50;;
12165;SDS011;6146;48.128;11.476;2024-03-17T09:13:15;1.67;;;1.50;;
12165;SDS011;6146;48.128;11.476;2024-03-17T09:16:01;2.17;;;1.38;;
12165;SDS011;6146;48.128;11.476;2024-03-17T09:18:30;1.63;;;1.48;;
12165;SDS011;6146;48.128;11.476;2024-03-17T09:21:00;1.33;;;1.20;;
12165;SDS011;6146;48.128;11.476;2024-03-17T09:23:30;1.52;;;1.42;;
12165;SDS011;6146;48.128;11.476;2024-03-17T09:25:59;2.67;;;1.30;;
12165;SDS011;6146;48.128;11.476;2024-03-17T09:28:30;1.50;;;1.40;;
12165;SDS011;6146;48.128;11.476;2024-03-17T09:30:56;1.40;;;1.30;;
12165;SDS011;6146;48.128;11.476;2024-03-17T09:33:23;1.50;;;1.40;;
12165;SDS011;6146;48.128;11.476;2024-03-17T09:35:56;1.25;;;1.15;;
12165;SDS011;6146;48.128;11.476;2024-03-17T09:38:27;1.50;;;1.30;;
12165;SDS011;6146;48.128;11.476;2024-03-17T09:40:53;1.08;;;1.08;;
12165;SDS011;6146;48.128;11.476;2024-03-17T09:43:22;2.03;;;1.60;;
12165;SDS011;6146;48.128;11.476;2024-03-17T09:45:48;1.52;;;1.23;;
12165;SDS011;6146;48.128;11.476;2024-03-17T09:48:16;1.42;;;1.20;;
12165;SDS011;6146;48.128;11.476;2024-03-17T09:50:44;1.85;;;1.30;;
12165;SDS011;6146;48.128;11.476;2024-03-17T09:53:17;1.40;;;1.30;;
12165;SDS011;6146;48.128;11.476;2024-03-17T09:55:50;2.63;;;1.17;;
12165;SDS011;6146;48.128;11.476;2024-03-17T09:58:18;1.67;;;1.10;;
12165;SDS011;6146;48.128;11.476;2024-03-17T10:00:44;1.83;;;1.30;;
12165;SDS011;6146;48.128;11.476;2024-03-17T10:03:11;2.35;;;1.05;;
12165;SDS011;6146;48.128;11.476;2024-03-17T10:05:37;1.50;;;1.30;;
12165;SDS011;6146;48.128;11.476;2024-03-17T10:08:03;1.50;;;1.27;;
12165;SDS011;6146;48.128;11.476;2024-03-17T10:10:29;1.63;;;1.20;;
12165;SDS011;6146;48.128;11.476;2024-03-17T10:12:54;1.93;;;1.37;;
12165;SDS011;6146;48.128;11.476;2024-03-17T10:15:20;1.90;;;1.20;;
12165;SDS011;6146;48.128;11.476;2024-03-17T10:17:46;1.53;;;1.30;;
12165;SDS011;6146;48.128;11.476;2024-03-17T10:20:16;2.20;;;1.30;;
12165;SDS011;6146;48.128;11.476;2024-03-17T10:23:02;2.77;;;1.40;;
12165;SDS011;6146;48.128;11.476;2024-03-17T10:25:33;2.27;;;1.30;;
12165;SDS011;6146;48.128;11.476;2024-03-17T10:28:04;1.20;;;1.10;;
12165;SDS011;6146;48.128;11.476;2024-03-17T10:30:38;2.00;;;1.30;;
12165;SDS011;6146;48.128;11.476;2024-03-17T10:33:05;2.13;;;1.23;;
12165;SDS011;6146;48.128;11.476;2024-03-17T10:35:37;1.60;;;1.43;;
12165;SDS011;6146;48.128;11.476;2024-03-17T10:38:08;1.30;;;1.20;;
12165;SDS011;6146;48.128;11.476;2024-03-17T10:40:34;2.10;;;1.53;;
12165;SDS011;6146;48.128;11.476;2024-03-17T10:43:03;2.10;;;1.50;;
12165;SDS011;6146;48.128;11.476;2024-03-17T10:45:30;3.20;;;1.40;;
12165;SDS011;6146;48.128;11.476;2024-03-17T10:48:02;2.23;;;1.70;;
12165;SDS011;6146;48.128;11.476;2024-03-17T10:50:32;2.63;;;1.70;;
12165;SDS011;6146;48.128;11.476;2024-03-17T10:53:02;2.03;;;1.33;;
12165;SDS011;6146;48.128;11.476;2024-03-17T10:55:35;3.53;;;1.53;;
12165;SDS011;6146;48.128;11.476;2024-03-17T10:58:17;2.10;;;1.30;;
12165;SDS011;6146;48.128;11.476;2024-03-17T11:01:11;3.53;;;1.50;;
12165;SDS011;6146;48.128;11.476;2024-03-17T11:03:39;1.73;;;1.33;;
12165;SDS011;6146;48.128;11.476;2024-03-17T11:06:05;1.20;;;1.10;;
12165;SDS011;6146;48.128;11.476;2024-03-17T11:08:33;3.63;;;1.67;;
12165;SDS011;6146;48.128;11.476;2024-03-17T11:11:00;1.27;;;1.17;;
12165;SDS011;6146;48.128;11.476;2024-03-17T11:13:27;1.83;;;1.20;;
12165;SDS011;6146;48.128;11.476;2024-03-17T11:15:54;1.57;;;1.00;;
12165;SDS011;6146;48.128;11.476;2024-03-17T11:20:56;1.33;;;1.20;;
12165;SDS011;6146;48.128;11.476;2024-03-17T11:23:28;1.47;;;1.10;;
12165;SDS011;6146;48.128;11.476;2024-03-17T11:25:55;2.00;;;1.20;;
12165;SDS011;6146;48.128;11.476;2024-03-17T11:34:28;1.80;;;1.30;;
12165;SDS011;6146;48.128;11.476;2024-03-17T11:37:00;3.00;;;1.07;;
12165;SDS011;6146;48.128;11.476;2024-03-17T11:42:14;1.90;;;1.27;;
12165;SDS011;6146;48.128;11.476;2024-03-17T11:44:42;1.23;;;1.10;;
12165;SDS011;6146;48.128;11.476;2024-03-17T11:47:20;3.37;;;1.40;;
12165;SDS011;6146;48.128;11.476;2024-03-17T11:49:46;2.07;;;1.60;;
12165;SDS011;6146;48.128;11.476;2024-03-17T11:52:15;2.80;;;1.80;;
12165;SDS011;6146;48.128;11.476;2024-03-17T11:54:45;2.17;;;1.47;;
12165;SDS011;6146;48.128;11.476;2024-03-17T11:57:21;1.20;;;1.10;;
12165;SDS011;6146;48.128;11.476;2024-03-17T11:59:51;1.60;;;1.30;;
12165;SDS011;6146;48.128;11.476;2024-03-17T12:02:22;5.33;;;3.27;;
12165;SDS011;6146;48.128;11.476;2024-03-17T12:05:01;3.40;;;1.70;;
12165;SDS011;6146;48.128;11.476;2024-03-17T12:07:27;1.37;;;1.20;;
12165;SDS011;6146;48.128;11.476;2024-03-17T12:09:55;2.87;;;1.00;;
12165;SDS011;6146;48.128;11.476;2024-03-17T12:12:23;3.37;;;2.87;;
12165;SDS011;6146;48.128;11.476;2024-03-17T12:14:51;2.03;;;1.60;;
12165;SDS011;6146;48.128;11.476;2024-03-17T12:17:20;2.03;;;1.40;;
12165;SDS011;6146;48.128;11.476;2024-03-17T12:19:47;3.40;;;1.47;;
12165;SDS011;6146;48.128;11.476;2024-03-17T12:22:20;3.80;;;1.93;;
12165;SDS011;6146;48.128;11.476;2024-03-17T12:24:47;2.40;;;1.20;;
12165;SDS011;6146;48.128;11.476;2024-03-17T12:27:18;4.20;;;2.10;;
12165;SDS011;6146;48.128;11.476;2024-03-17T12:29:45;2.97;;;1.40;;
12165;SDS011;6146;48.128;11.476;2024-03-17T12:32:16;2.33;;;1.17;;
12165;SDS011;6146;48.128;11.476;2024-03-17T12:34:43;3.10;;;1.90;;
12165;SDS011;6146;48.128;11.476;2024-03-17T12:37:15;2.10;;;1.50;;
12165;SDS011;6146;48.128;11.476;2024-03-17T12:39:45;4.43;;;2.00;;
12165;SDS011;6146;48.128;11.476;2024-03-17T12:42:15;2.73;;;1.60;;
12165;SDS011;6146;48.128;11.476;2024-03-17T12:44:48;1.90;;;1.50;;
12165;SDS011;6146;48.128;11.476;2024-03-17T12:47:16;1.60;;;1.07;;
12165;SDS011;6146;48.128;11.476;2024-03-17T12:52:16;2.70;;;1.30;;
12165;SDS011;6146;48.128;11.476;2024-03-17T12:54:59;2.03;;;1.47;;
12165;SDS011;6146;48.128;11.476;2024-03-17T12:57:45;2.90;;;1.37;;
12165;SDS011;6146;48.128;11.476;2024-03-17T13:00:30;2.83;;;1.23;;
12165;SDS011;6146;48.128;11.476;2024-03-17T13:02:56;2.43;;;1.30;;
12165;SDS011;6146;48.128;11.476;2024-03-17T13:05:22;2.20;;;1.10;;
12165;SDS011;6146;48.128;11.476;2024-03-17T13:07:49;3.50;;;1.23;;
12165;SDS011;6146;48.128;11.476;2024-03-17T13:10:19;1.93;;;1.40;;
12165;SDS011;6146;48.128;11.476;2024-03-17T13:12:45;2.07;;;1.27;;
12165;SDS011;6146;48.128;11.476;2024-03-17T13:15:12;1.53;;;1.20;;
12165;SDS011;6146;48.128;11.476;2024-03-17T13:17:42;1.80;;;1.20;;
12165;SDS011;6146;48.128;11.476;2024-03-17T13:20:12;1.83;;;1.27;;
12165;SDS011;6146;48.128;11.476;2024-03-17T13:22:41;1.87;;;1.30;;
12165;SDS011;6146;48.128;11.476;2024-03-17T13:25:09;3.03;;;1.20;;
12165;SDS011;6146;48.128;11.476;2024-03-17T13:27:42;3.30;;;1.53;;
12165;SDS011;6146;48.128;11.476;2024-03-17T13:30:10;1.73;;;1.30;;
12165;SDS011;6146;48.128;11.476;2024-03-17T13:32:39;2.40;;;1.60;;
12165;SDS011;6146;48.128;11.476;2024-03-17T13:35:13;2.20;;;1.30;;
12165;SDS011;6146;48.128;11.476;2024-03-17T13:37:46;6.37;;;2.03;;
12165;SDS011;6146;48.128;11.476;2024-03-17T13:40:13;1.83;;;1.30;;
12165;SDS011;6146;48.128;11.476;2024-03-17T13:42:43;3.77;;;1.27;;
12165;SDS011;6146;48.128;11.476;2024-03-17T13:45:15;1.67;;;1.40;;
12165;SDS011;6146;48.128;11.476;2024-03-17T13:47:43;2.77;;;1.33;;
12165;SDS011;6146;48.128;11.476;2024-03-17T13:50:12;1.73;;;1.20;;
12165;SDS011;6146;48.128;11.476;2024-03-17T13:52:39;3.60;;;1.30;;
12165;SDS011;6146;48.128;11.476;2024-03-17T13:55:05;1.70;;;1.40;;
12165;SDS011;6146;48.128;11.476;2024-03-17T13:57:32;1.80;;;1.33;;
12165;SDS011;6146;48.128;11.476;2024-03-17T13:59:58;2.97;;;1.20;;
12165;SDS011;6146;48.128;11.476;2024-03-17T14:02:24;1.70;;;1.17;;
12165;SDS011;6146;48.128;11.476;2024-03-17T14:04:49;3.43;;;1.40;;
12165;SDS011;6146;48.128;11.476;2024-03-17T14:07:15;2.00;;;1.30;;
12165;SDS011;6146;48.128;11.476;2024-03-17T14:09:41;2.00;;;1.40;;
12165;SDS011;6146;48.128;11.476;2024-03-17T14:12:07;3.67;;;1.40;;
12165;SDS011;6146;48.128;11.476;2024-03-17T14:14:33;2.10;;;1.30;;
12165;SDS011;6146;48.128;11.476;2024-03-17T14:16:59;1.83;;;1.20;;
12165;SDS011;6146;48.128;11.476;2024-03-17T14:19:24;3.20;;;1.40;;
12165;SDS011;6146;48.128;11.476;2024-03-17T14:21:50;3.03;;;1.40;;
12165;SDS011;6146;48.128;11.476;2024-03-17T14:24:16;1.80;;;1.40;;
12165;SDS011;6146;48.128;11.476;2024-03-17T14:26:42;3.63;;;1.20;;
12165;SDS011;6146;48.128;11.476;2024-03-17T14:29:07;4.13;;;1.67;;
12165;SDS011;6146;48.128;11.476;2024-03-17T14:31:33;2.77;;;1.43;;
12165;SDS011;6146;48.128;11.476;2024-03-17T14:34:01;3.00;;;1.40;;
12165;SDS011;6146;48.128;11.476;2024-03-17T14:36:33;3.60;;;1.40;;
12165;SDS011;6146;48.128;11.476;2024-03-17T14:38:59;4.33;;;1.77;;
12165;SDS011;6146;48.128;11.476;2024-03-17T14:41:27;4.07;;;1.60;;
12165;SDS011;6146;48.128;11.476;2024-03-17T14:43:56;2.23;;;1.40;;
12165;SDS011;6146;48.128;11.476;2024-03-17T14:46:25;2.07;;;1.43;;
12165;SDS011;6146;48.128;11.476;2024-03-17T14:48:52;2.70;;;1.70;;
12165;SDS011;6146;48.128;11.476;2024-03-17T14:51:18;3.37;;;1.97;;
12165;SDS011;6146;48.128;11.476;2024-03-17T14:53:46;2.07;;;1.50;;
12165;SDS011;6146;48.128;11.476;2024-03-17T14:56:16;1.90;;;1.30;;
12165;SDS011;6146;48.128;11.476;2024-03-17T14:58:42;3.80;;;1.60;;
12165;SDS011;6146;48.128;11.476;2024-03-17T15:01:09;2.63;;;1.20;;
12165;SDS011;6146;48.128;11.476;2024-03-17T15:03:35;2.00;;;1.40;;
12165;SDS011;6146;48.128;11.476;2024-03-17T15:06:01;2.20;;;1.40;;